Time;durP1;ratioP1;P1;durP2;ratioP2;P2;SDS_P1;SDS_P2;PMS_P1;PMS_P2;Temp;Humidity;BMP_temperature;BMP_pressure;BME280_temperature;BME280_humidity;BME280_pressure;Samples;Min_cycle;Max_cycle;Signal;HPM_P1;HPM_P2
2020/12/29 00:02:24;;;;;;;10.43;5.93;;;6.30;99.90;;;;;;4380853;32;20418;-75
2020/12/29 00:04:51;;;;;;;10.63;6.07;;;6.30;99.90;;;;;;4382215;32;20450;-76
2020/12/29 00:07:17;;;;;;;10.67;6.30;;;6.40;99.90;;;;;;4382212;32;20495;-76
2020/12/29 00:09:43;;;;;;;10.53;6.07;;;6.30;99.90;;;;;;4380850;32;20394;-75
2020/12/29 00:12:10;;;;;;;10.13;5.83;;;6.30;99.90;;;;;;4380761;32;20194;-77
2020/12/29 00:14:37;;;;;;;9.30;6.00;;;6.40;99.90;;;;;;4382170;32;20388;-76
2020/12/29 00:17:03;;;;;;;11.97;6.63;;;6.30;99.90;;;;;;4380657;32;20155;-75
2020/12/29 00:19:30;;;;;;;10.33;5.93;;;6.40;99.90;;;;;;4381677;32;20226;-76
2020/12/29 00:21:56;;;;;;;10.00;6.50;;;6.40;99.90;;;;;;4382336;32;20140;-75
2020/12/29 00:24:23;;;;;;;11.60;6.70;;;6.40;99.90;;;;;;4381671;32;20188;-75
2020/12/29 00:27:03;;;;;;;10.63;6.33;;;6.50;99.90;;;;;;4381974;32;20170;-75
2020/12/29 00:29:30;;;;;;;10.93;6.30;;;6.50;99.90;;;;;;4380349;32;20147;-75
2020/12/29 00:32:00;;;;;;;11.57;6.50;;;6.50;99.90;;;;;;4381937;32;20474;-75
2020/12/29 00:34:26;;;;;;;12.50;6.50;;;6.40;99.90;;;;;;4381933;32;20152;-75
2020/12/29 00:36:53;;;;;;;13.37;6.40;;;6.50;99.90;;;;;;4382035;32;20183;-76
2020/12/29 00:39:19;;;;;;;11.30;6.27;;;6.50;99.90;;;;;;4380246;32;20188;-75
2020/12/29 00:41:45;;;;;;;13.33;6.43;;;6.50;99.90;;;;;;4381627;32;20139;-75
2020/12/29 00:44:12;;;;;;;11.90;6.63;;;6.50;99.90;;;;;;4382163;32;20378;-75
2020/12/29 00:46:38;;;;;;;10.90;6.37;;;6.50;99.90;;;;;;4381525;32;20199;-75
2020/12/29 00:49:05;;;;;;;11.33;6.93;;;6.50;99.90;;;;;;4379227;32;20229;-75
2020/12/29 00:51:31;;;;;;;12.67;6.70;;;6.50;99.90;;;;;;4380039;32;20168;-75
2020/12/29 00:53:57;;;;;;;11.83;6.33;;;6.50;99.90;;;;;;4380008;32;20188;-75
2020/12/29 00:56:24;;;;;;;11.83;6.77;;;6.40;99.90;;;;;;4379998;32;20221;-74
2020/12/29 00:58:50;;;;;;;11.23;6.67;;;6.40;99.90;;;;;;4381622;32;20176;-75
2020/12/29 01:01:16;;;;;;;12.70;6.70;;;6.40;99.90;;;;;;4381261;32;20450;-75
2020/12/29 01:03:43;;;;;;;11.97;6.67;;;6.40;99.90;;;;;;4381332;32;20231;-75
2020/12/29 01:06:10;;;;;;;11.43;6.47;;;6.40;99.90;;;;;;4381189;32;20153;-75
2020/12/29 01:08:36;;;;;;;11.37;6.30;;;6.30;99.90;;;;;;4379603;32;20464;-74
2020/12/29 01:11:03;;;;;;;10.73;6.40;;;6.30;99.90;;;;;;4379858;32;20256;-75
2020/12/29 01:13:29;;;;;;;11.33;6.23;;;6.20;99.90;;;;;;4381271;32;20166;-75
2020/12/29 01:15:56;;;;;;;11.10;6.90;;;6.20;99.90;;;;;;4379808;32;20153;-76
2020/12/29 01:18:22;;;;;;;10.17;6.20;;;6.20;99.90;;;;;;4381108;32;20140;-75
2020/12/29 01:20:49;;;;;;;12.70;6.60;;;6.20;99.90;;;;;;4379497;32;20176;-75
2020/12/29 01:23:16;;;;;;;11.10;6.30;;;6.20;99.90;;;;;;4381113;32;20206;-75
2020/12/29 01:25:43;;;;;;;10.53;6.07;;;6.20;99.90;;;;;;4381190;32;20182;-75
2020/12/29 01:28:10;;;;;;;10.07;6.27;;;6.10;99.90;;;;;;4379557;32;20199;-75
2020/12/29 01:30:38;;;;;;;10.20;6.10;;;6.10;99.90;;;;;;4381123;32;20205;-75
2020/12/29 01:33:05;;;;;;;10.97;6.07;;;6.00;99.90;;;;;;4381359;32;20378;-75
2020/12/29 01:35:32;;;;;;;11.33;6.40;;;6.00;99.90;;;;;;4379027;32;20179;-75
2020/12/29 01:37:58;;;;;;;10.03;5.90;;;6.00;99.90;;;;;;4379550;32;20136;-75
2020/12/29 01:40:25;;;;;;;10.27;6.33;;;6.00;99.90;;;;;;4379583;32;20140;-76
2020/12/29 01:42:51;;;;;;;12.77;6.67;;;6.10;99.90;;;;;;4380965;32;20167;-76
2020/12/29 01:45:18;;;;;;;9.00;5.87;;;6.10;99.90;;;;;;4374497;32;20148;-76
2020/12/29 01:47:47;;;;;;;10.07;6.40;;;6.10;99.90;;;;;;4379316;32;20176;-75
2020/12/29 01:50:16;;;;;;;10.13;5.90;;;6.10;99.90;;;;;;4381060;32;20189;-76
2020/12/29 01:52:42;;;;;;;12.47;6.50;;;6.10;99.90;;;;;;4379243;32;20442;-75
2020/12/29 01:55:10;;;;;;;11.30;6.83;;;6.00;99.90;;;;;;4379312;32;20178;-74
2020/12/29 01:57:37;;;;;;;10.20;6.50;;;6.10;99.90;;;;;;4379005;32;20128;-75
2020/12/29 02:00:12;;;;;;;11.57;6.43;;;6.10;99.90;;;;;;4380437;32;20406;-75
2020/12/29 02:02:41;;;;;;;12.33;6.70;;;6.10;99.90;;;;;;4378235;32;20140;-75
2020/12/29 02:05:08;;;;;;;12.73;6.80;;;6.10;99.90;;;;;;4379210;32;20140;-75
2020/12/29 02:07:35;;;;;;;12.63;6.80;;;6.20;99.90;;;;;;4380525;32;20199;-76
2020/12/29 02:10:03;;;;;;;13.07;6.30;;;6.20;99.90;;;;;;4380670;32;20145;-76
2020/12/29 02:12:32;;;;;;;11.23;6.43;;;6.20;99.90;;;;;;4379064;32;20132;-76
2020/12/29 02:14:59;;;;;;;10.13;6.07;;;6.10;99.90;;;;;;4378504;32;20146;-76
2020/12/29 02:17:29;;;;;;;10.63;6.77;;;6.20;99.90;;;;;;4379342;32;20186;-75
2020/12/29 02:19:56;;;;;;;10.17;6.23;;;6.20;99.90;;;;;;4378938;32;20207;-75
2020/12/29 02:22:24;;;;;;;11.73;6.70;;;6.10;99.90;;;;;;4379038;32;20218;-76
2020/12/29 02:24:56;;;;;;;11.70;6.13;;;6.10;99.90;;;;;;4380060;32;20169;-75
2020/12/29 02:27:26;;;;;;;14.10;6.90;;;6.20;99.90;;;;;;4380383;32;20185;-75
2020/12/29 02:29:52;;;;;;;9.63;5.90;;;6.10;99.90;;;;;;4380061;32;20174;-75
2020/12/29 02:32:20;;;;;;;11.27;6.70;;;6.10;99.90;;;;;;4379496;32;20135;-76
2020/12/29 02:34:47;;;;;;;9.53;5.90;;;6.10;99.90;;;;;;4380719;32;20204;-76
2020/12/29 02:37:14;;;;;;;10.77;6.37;;;6.10;99.90;;;;;;4379245;32;20195;-76
2020/12/29 02:39:44;;;;;;;9.70;5.80;;;6.10;99.90;;;;;;4380305;32;20193;-75
2020/12/29 02:42:10;;;;;;;10.63;5.80;;;6.10;99.90;;;;;;4378980;32;20189;-76
2020/12/29 02:44:38;;;;;;;10.63;5.93;;;6.10;99.90;;;;;;4378930;32;20164;-75
2020/12/29 02:47:05;;;;;;;11.80;5.83;;;6.00;99.90;;;;;;4378900;32;20228;-75
2020/12/29 02:49:35;;;;;;;12.77;6.30;;;6.00;99.90;;;;;;4380392;32;20462;-77
2020/12/29 02:52:05;;;;;;;8.73;5.53;;;6.00;99.90;;;;;;4378091;32;20182;-75
2020/12/29 02:54:31;;;;;;;10.47;5.60;;;6.10;99.90;;;;;;4380246;32;20149;-75
2020/12/29 02:56:58;;;;;;;12.20;5.67;;;6.10;99.90;;;;;;4378787;32;20423;-74
2020/12/29 02:59:25;;;;;;;9.83;5.73;;;6.10;99.90;;;;;;4378851;32;20141;-76
2020/12/29 03:01:52;;;;;;;9.70;5.50;;;6.10;99.90;;;;;;4378770;32;20139;-75
2020/12/29 03:04:19;;;;;;;9.13;5.60;;;6.20;99.90;;;;;;4378754;32;20152;-75
2020/12/29 03:06:46;;;;;;;9.93;5.57;;;6.20;99.90;;;;;;4380083;32;20188;-75
2020/12/29 03:09:14;;;;;;;8.37;5.10;;;6.20;99.90;;;;;;4378679;32;20168;-75
2020/12/29 03:11:40;;;;;;;10.00;5.70;;;6.20;99.90;;;;;;4381124;32;20136;-75
2020/12/29 03:14:08;;;;;;;10.03;5.23;;;6.20;99.90;;;;;;4383004;32;20200;-75
2020/12/29 03:16:36;;;;;;;8.37;5.03;;;6.20;99.90;;;;;;4383015;32;20184;-75
2020/12/29 03:19:21;;;;;;;8.30;5.37;;;6.30;99.90;;;;;;4381932;32;20454;-75
2020/12/29 03:21:48;;;;;;;8.97;5.33;;;6.30;99.90;;;;;;4382920;32;20140;-76
2020/12/29 03:24:15;;;;;;;9.60;5.33;;;6.30;99.90;;;;;;4381999;32;20505;-76
2020/12/29 03:26:41;;;;;;;9.60;5.37;;;6.30;99.90;;;;;;4381313;32;20262;-76
2020/12/29 03:29:08;;;;;;;10.87;5.10;;;6.30;99.90;;;;;;4382786;32;20172;-76
2020/12/29 03:31:38;;;;;;;8.90;5.50;;;6.30;99.90;;;;;;4382279;32;20151;-76
2020/12/29 03:34:05;;;;;;;9.10;5.33;;;6.30;99.90;;;;;;4382686;32;20143;-75
2020/12/29 03:36:34;;;;;;;9.17;5.63;;;6.40;99.90;;;;;;4381229;32;20525;-76
2020/12/29 03:39:01;;;;;;;9.37;5.30;;;6.40;99.90;;;;;;4381505;32;20136;-75
2020/12/29 03:41:27;;;;;;;9.67;5.40;;;6.40;99.90;;;;;;4382937;32;20186;-76
2020/12/29 03:43:54;;;;;;;9.40;5.27;;;6.40;99.90;;;;;;4381221;32;20422;-76
2020/12/29 03:46:20;;;;;;;11.30;5.07;;;6.40;99.90;;;;;;4381128;32;20181;-76
2020/12/29 03:48:46;;;;;;;8.57;4.83;;;6.40;99.90;;;;;;4382523;32;20137;-76
2020/12/29 03:51:13;;;;;;;7.83;5.10;;;6.40;99.90;;;;;;4380935;32;20243;-76
2020/12/29 03:53:39;;;;;;;12.50;5.30;;;6.50;99.90;;;;;;4380955;32;20147;-76
2020/12/29 03:56:05;;;;;;;8.50;4.93;;;6.40;99.90;;;;;;4382341;32;20199;-75
2020/12/29 03:58:32;;;;;;;9.87;5.23;;;6.50;99.90;;;;;;4382465;32;20169;-76
2020/12/29 04:00:58;;;;;;;8.83;5.20;;;6.50;99.90;;;;;;4380813;32;20183;-76
2020/12/29 04:03:25;;;;;;;8.67;5.10;;;6.50;99.90;;;;;;4382365;32;20159;-76
2020/12/29 04:05:51;;;;;;;7.53;4.77;;;6.60;99.90;;;;;;4382317;32;20142;-76
2020/12/29 04:08:18;;;;;;;8.33;5.10;;;6.60;99.90;;;;;;4381021;32;20187;-75
2020/12/29 04:10:44;;;;;;;8.73;5.10;;;6.60;99.90;;;;;;4382088;32;20160;-76
2020/12/29 04:13:11;;;;;;;9.03;5.03;;;6.60;99.90;;;;;;4381011;32;20170;-76
2020/12/29 04:15:37;;;;;;;9.80;5.50;;;6.70;99.90;;;;;;4382082;32;20178;-75
2020/12/29 04:18:03;;;;;;;10.10;5.57;;;6.70;99.90;;;;;;4380661;32;20232;-75
2020/12/29 04:20:30;;;;;;;9.90;5.23;;;6.70;99.90;;;;;;4381211;32;20164;-76
2020/12/29 04:22:56;;;;;;;10.17;5.50;;;6.80;99.90;;;;;;4381808;32;20344;-75
2020/12/29 04:25:22;;;;;;;8.60;5.03;;;6.80;99.90;;;;;;4381985;32;20184;-75
2020/12/29 04:27:49;;;;;;;9.03;5.27;;;6.80;99.90;;;;;;4380421;32;20198;-75
2020/12/29 04:30:15;;;;;;;8.27;5.33;;;6.80;99.90;;;;;;4381907;32;20147;-75
2020/12/29 04:32:42;;;;;;;9.80;4.77;;;6.90;99.90;;;;;;4381922;32;20205;-75
2020/12/29 04:35:08;;;;;;;9.33;4.93;;;6.90;99.90;;;;;;4380335;32;20537;-75
2020/12/29 04:37:35;;;;;;;8.33;5.17;;;6.90;99.90;;;;;;4381317;32;20401;-75
2020/12/29 04:40:04;;;;;;;9.43;5.10;;;6.90;99.90;;;;;;4380271;32;20144;-75
2020/12/29 04:42:31;;;;;;;8.80;5.37;;;7.00;99.90;;;;;;4380528;32;20452;-75
2020/12/29 04:44:58;;;;;;;7.93;4.70;;;7.00;99.90;;;;;;4381705;32;20427;-75
2020/12/29 04:47:28;;;;;;;8.73;4.87;;;7.00;99.90;;;;;;4380024;32;20168;-76
2020/12/29 04:49:56;;;;;;;8.60;4.83;;;7.00;99.90;;;;;;4380208;32;20138;-76
2020/12/29 04:52:25;;;;;;;8.53;4.70;;;7.00;99.90;;;;;;4381566;32;20152;-76
2020/12/29 04:54:53;;;;;;;9.60;5.40;;;7.10;99.90;;;;;;4380806;32;20195;-76
2020/12/29 04:57:22;;;;;;;10.07;5.30;;;7.10;99.90;;;;;;4381584;32;20220;-76
2020/12/29 04:59:54;;;;;;;9.27;5.30;;;7.20;99.90;;;;;;4381570;32;20233;-76
2020/12/29 05:02:21;;;;;;;8.83;5.37;;;7.20;99.90;;;;;;4380026;32;20224;-76
2020/12/29 05:04:48;;;;;;;8.20;4.80;;;7.30;99.90;;;;;;4379998;32;20187;-75
2020/12/29 05:07:14;;;;;;;8.20;5.13;;;7.30;99.90;;;;;;4379666;32;20239;-76
2020/12/29 05:09:43;;;;;;;8.70;5.30;;;7.40;99.90;;;;;;4381457;32;20144;-76
2020/12/29 05:12:14;;;;;;;10.17;5.73;;;7.40;99.90;;;;;;4381641;32;20193;-76
2020/12/29 05:14:43;;;;;;;11.90;5.43;;;7.40;99.90;;;;;;4381349;32;20420;-76
2020/12/29 05:17:10;;;;;;;10.27;5.50;;;7.40;99.90;;;;;;4379772;32;20151;-76
2020/12/29 05:19:36;;;;;;;8.93;5.30;;;7.40;99.90;;;;;;4380941;32;20344;-77
2020/12/29 05:22:03;;;;;;;8.43;5.00;;;7.40;99.90;;;;;;4379813;32;20171;-76
2020/12/29 05:24:29;;;;;;;8.63;5.00;;;7.40;99.90;;;;;;4381203;32;20202;-76
2020/12/29 05:27:00;;;;;;;9.27;5.20;;;7.40;99.90;;;;;;4379656;32;20175;-76
2020/12/29 05:29:29;;;;;;;7.97;4.80;;;7.50;99.90;;;;;;4380435;32;20138;-75
2020/12/29 05:31:56;;;;;;;8.03;5.03;;;7.40;99.90;;;;;;4379626;32;20137;-75
2020/12/29 05:34:27;;;;;;;8.60;4.97;;;7.40;99.90;;;;;;4380509;32;20423;-76
2020/12/29 05:36:56;;;;;;;8.33;5.00;;;7.40;99.90;;;;;;4379560;32;20187;-76
2020/12/29 05:39:26;;;;;;;8.73;5.03;;;7.50;99.90;;;;;;4380940;32;20306;-76
2020/12/29 05:41:54;;;;;;;7.67;4.70;;;7.50;99.90;;;;;;4379553;32;20166;-76
2020/12/29 05:44:31;;;;;;;9.73;5.03;;;7.50;99.90;;;;;;4380854;32;20467;-76
2020/12/29 05:47:00;;;;;;;10.43;5.70;;;7.50;99.90;;;;;;4379999;32;20205;-76
2020/12/29 05:49:27;;;;;;;8.27;5.03;;;7.50;99.90;;;;;;4380852;32;20284;-76
2020/12/29 05:51:56;;;;;;;9.13;5.30;;;7.50;99.90;;;;;;4380562;32;20200;-76
2020/12/29 05:54:25;;;;;;;8.83;5.37;;;7.50;99.90;;;;;;4380396;32;20507;-76
2020/12/29 05:56:52;;;;;;;10.27;5.77;;;7.50;99.90;;;;;;4379132;32;20390;-76
2020/12/29 05:59:19;;;;;;;9.80;5.87;;;7.50;99.90;;;;;;4379255;32;20145;-77
2020/12/29 06:01:50;;;;;;;10.27;5.67;;;7.50;99.90;;;;;;4380146;32;20509;-76
2020/12/29 06:04:19;;;;;;;10.07;5.97;;;7.50;99.90;;;;;;4380721;32;20177;-76
2020/12/29 06:06:47;;;;;;;8.83;5.50;;;7.50;99.90;;;;;;4379126;32;20143;-77
2020/12/29 06:09:16;;;;;;;10.13;5.63;;;7.50;99.90;;;;;;4380024;32;20217;-76
2020/12/29 06:11:48;;;;;;;9.27;5.77;;;7.60;99.90;;;;;;4379169;32;20165;-77
2020/12/29 06:14:17;;;;;;;10.10;5.93;;;7.60;99.90;;;;;;4380715;32;20416;-76
2020/12/29 06:16:44;;;;;;;8.63;5.63;;;7.50;99.90;;;;;;4380620;32;20415;-76
2020/12/29 06:19:21;;;;;;;10.93;5.90;;;7.50;99.90;;;;;;4380602;32;20195;-76
2020/12/29 06:22:06;;;;;;;9.73;6.13;;;7.50;99.90;;;;;;4380457;32;20199;-76
2020/12/29 06:24:38;;;;;;;10.47;6.17;;;7.50;99.90;;;;;;4379218;32;20186;-76
2020/12/29 06:27:06;;;;;;;10.93;5.90;;;7.40;99.90;;;;;;4380432;32;20187;-76
2020/12/29 06:29:43;;;;;;;10.93;6.40;;;7.30;99.90;;;;;;4379813;32;20181;-76
2020/12/29 06:32:14;;;;;;;11.13;5.97;;;7.20;99.90;;;;;;4380333;32;20167;-75
2020/12/29 06:34:42;;;;;;;9.77;5.97;;;7.20;99.90;;;;;;4378965;32;20175;-76
2020/12/29 06:37:13;;;;;;;9.97;6.23;;;7.10;99.90;;;;;;4378937;32;20164;-76
2020/12/29 06:39:47;;;;;;;9.70;6.20;;;7.10;99.90;;;;;;4378940;32;20196;-77
2020/12/29 06:42:15;;;;;;;10.60;6.23;;;7.10;99.90;;;;;;4379400;32;20179;-76
2020/12/29 06:44:41;;;;;;;9.77;5.60;;;7.10;99.90;;;;;;4379605;32;20149;-76
2020/12/29 06:47:12;;;;;;;11.37;5.97;;;7.10;99.90;;;;;;4383086;32;20402;-76
2020/12/29 06:49:43;;;;;;;9.03;5.63;;;7.00;99.90;;;;;;4383510;32;20157;-76
2020/12/29 06:52:17;;;;;;;9.73;5.90;;;7.00;99.90;;;;;;4381860;32;20168;-76
2020/12/29 06:54:54;;;;;;;12.00;6.17;;;7.00;99.90;;;;;;4383876;32;20606;-76
2020/12/29 06:57:25;;;;;;;9.97;6.10;;;7.00;99.90;;;;;;4381875;32;20204;-77
2020/12/29 06:59:51;;;;;;;12.60;6.20;;;7.10;99.90;;;;;;4382034;32;20203;-77
2020/12/29 07:02:20;;;;;;;11.43;6.03;;;7.00;99.90;;;;;;4383231;32;20146;-77
2020/12/29 07:04:51;;;;;;;11.13;6.27;;;7.00;99.90;;;;;;4381743;32;20141;-75
2020/12/29 07:07:22;;;;;;;9.33;5.73;;;7.00;99.90;;;;;;4383051;32;20186;-76
2020/12/29 07:09:48;;;;;;;12.00;6.20;;;7.00;99.90;;;;;;4382533;32;20150;-76
2020/12/29 07:12:18;;;;;;;13.60;6.47;;;7.00;99.90;;;;;;4381721;32;20499;-76
2020/12/29 07:14:52;;;;;;;9.77;6.23;;;7.00;99.90;;;;;;4381638;32;20153;-76
2020/12/29 07:17:24;;;;;;;10.83;6.03;;;7.00;99.90;;;;;;4375716;32;20175;-76
2020/12/29 07:19:57;;;;;;;12.00;6.07;;;7.00;99.90;;;;;;4381026;32;20166;-75
2020/12/29 07:22:31;;;;;;;10.73;6.47;;;7.00;99.90;;;;;;4381828;32;20149;-75
2020/12/29 07:24:58;;;;;;;9.93;6.10;;;7.00;99.90;;;;;;4381790;32;20520;-76
2020/12/29 07:27:26;;;;;;;8.93;5.77;;;7.00;99.90;;;;;;4382743;32;20154;-76
2020/12/29 07:29:56;;;;;;;11.67;6.40;;;7.00;99.90;;;;;;4382790;32;20402;-76
2020/12/29 07:32:24;;;;;;;10.87;6.43;;;6.90;99.90;;;;;;4382578;32;20139;-76
2020/12/29 07:34:51;;;;;;;12.23;6.80;;;6.90;99.90;;;;;;4381234;32;20163;-77
2020/12/29 07:37:22;;;;;;;11.10;6.60;;;7.00;99.90;;;;;;4382670;32;20425;-76
2020/12/29 07:39:49;;;;;;;11.00;6.57;;;6.90;99.90;;;;;;4382676;32;20185;-76
2020/12/29 07:42:16;;;;;;;10.03;6.27;;;6.90;99.90;;;;;;4382865;32;20147;-76
2020/12/29 07:44:43;;;;;;;11.43;6.63;;;6.90;99.90;;;;;;4381077;32;20148;-76
2020/12/29 07:47:10;;;;;;;14.33;6.83;;;6.80;99.90;;;;;;4381008;32;20174;-76
2020/12/29 07:49:37;;;;;;;11.03;6.67;;;6.80;99.90;;;;;;4380937;32;20187;-76
2020/12/29 07:52:04;;;;;;;10.80;6.43;;;6.80;99.90;;;;;;4382440;32;20180;-76
2020/12/29 07:54:32;;;;;;;11.67;6.83;;;6.80;99.90;;;;;;4382401;32;20478;-77
2020/12/29 07:56:59;;;;;;;12.10;6.63;;;6.80;99.90;;;;;;4380514;32;20221;-76
2020/12/29 07:59:26;;;;;;;11.43;6.60;;;6.80;99.90;;;;;;4381304;32;20153;-77
2020/12/29 08:01:57;;;;;;;11.63;6.90;;;6.80;99.90;;;;;;4382368;32;20145;-77
2020/12/29 08:04:31;;;;;;;11.17;6.47;;;6.70;99.90;;;;;;4380921;32;20149;-76
2020/12/29 08:06:59;;;;;;;10.63;6.53;;;6.70;99.90;;;;;;4380894;32;20145;-77
2020/12/29 08:09:26;;;;;;;10.47;6.10;;;6.70;99.90;;;;;;4381526;32;20136;-77
2020/12/29 08:12:00;;;;;;;12.40;6.47;;;6.80;99.90;;;;;;4382200;32;20348;-77
2020/12/29 08:14:32;;;;;;;11.77;6.67;;;6.70;99.90;;;;;;4377766;32;20175;-77
2020/12/29 08:17:04;;;;;;;11.77;6.43;;;6.70;99.90;;;;;;4380923;32;20233;-77
2020/12/29 08:19:31;;;;;;;11.13;6.37;;;6.60;99.90;;;;;;4380420;32;20152;-77
2020/12/29 08:22:02;;;;;;;12.90;6.93;;;6.60;99.90;;;;;;4381877;32;20194;-77
2020/12/29 08:24:31;;;;;;;12.90;6.70;;;6.60;99.90;;;;;;4380629;32;20150;-77
2020/12/29 08:26:58;;;;;;;10.83;6.57;;;6.60;99.90;;;;;;4381016;32;20538;-77
2020/12/29 08:29:25;;;;;;;11.20;6.47;;;6.70;99.90;;;;;;4382098;32;20204;-77
2020/12/29 08:32:21;;;;;;;10.77;6.30;;;6.70;99.90;;;;;;4380472;32;20149;-76
2020/12/29 08:34:48;;;;;;;11.00;6.30;;;6.70;99.90;;;;;;4334284;33;20150;-77
2020/12/29 08:37:22;;;;;;;12.00;6.40;;;6.70;99.90;;;;;;4335321;33;20196;-76
2020/12/29 08:40:06;;;;;;;12.27;6.83;;;6.70;99.90;;;;;;4333587;33;20177;-77
2020/12/29 08:42:50;;;;;;;11.63;6.67;;;6.60;99.90;;;;;;4335252;33;20145;-76
2020/12/29 08:45:16;;;;;;;10.27;6.27;;;6.60;99.90;;;;;;4333605;33;20226;-77
2020/12/29 08:47:45;;;;;;;10.63;6.40;;;6.50;99.90;;;;;;4333732;33;20190;-76
2020/12/29 08:50:26;;;;;;;12.63;7.23;;;6.50;99.90;;;;;;4333465;33;20139;-77
2020/12/29 08:53:01;;;;;;;11.50;6.37;;;6.60;99.90;;;;;;4333936;33;20181;-77
2020/12/29 08:55:30;;;;;;;12.07;6.60;;;6.60;99.90;;;;;;4334385;33;20219;-76
2020/12/29 08:57:57;;;;;;;11.77;6.47;;;6.60;99.90;;;;;;4334428;33;20214;-74
2020/12/29 09:00:25;;;;;;;10.63;6.13;;;6.60;99.90;;;;;;4334382;33;20202;-75
2020/12/29 09:02:52;;;;;;;10.37;6.00;;;6.50;99.90;;;;;;4333281;33;20151;-76
2020/12/29 09:05:28;;;;;;;8.83;5.53;;;6.60;99.90;;;;;;4333623;33;20235;-76
2020/12/29 09:07:55;;;;;;;11.10;5.70;;;6.60;99.90;;;;;;4335302;33;20593;-75
2020/12/29 09:10:22;;;;;;;9.67;6.17;;;6.50;99.90;;;;;;4337551;33;20154;-75
2020/12/29 09:12:49;;;;;;;10.77;5.50;;;6.50;99.90;;;;;;4376999;32;20146;-75
2020/12/29 09:15:24;;;;;;;9.20;5.33;;;6.60;99.90;;;;;;4379930;32;20146;-76
2020/12/29 09:17:56;;;;;;;9.80;5.40;;;6.50;99.90;;;;;;4381313;32;20148;-76
2020/12/29 09:20:32;;;;;;;6.60;4.63;;;6.50;99.90;;;;;;4379770;32;20168;-76
2020/12/29 09:22:59;;;;;;;8.50;5.00;;;6.50;99.90;;;;;;4381308;32;20466;-77
2020/12/29 09:25:29;;;;;;;7.90;4.87;;;6.50;99.90;;;;;;4381206;32;20169;-76
2020/12/29 09:29:33;;;;;;;8.07;4.53;;;6.50;99.90;;;;;;4485550;31;20476;-76
2020/12/29 09:32:01;;;;;;;7.80;4.63;;;6.60;99.90;;;;;;4468606;32;20190;-77
2020/12/29 09:34:27;;;;;;;7.50;4.37;;;6.60;99.90;;;;;;4469392;32;20142;-77
2020/12/29 09:36:54;;;;;;;6.83;4.40;;;6.60;99.90;;;;;;4468743;32;20250;-77
2020/12/29 09:39:21;;;;;;;5.67;3.57;;;6.60;99.90;;;;;;4470222;32;20165;-77
2020/12/29 09:41:54;;;;;;;5.30;3.90;;;6.60;99.90;;;;;;4468661;32;20130;-77
2020/12/29 09:44:20;;;;;;;6.10;3.73;;;6.60;99.90;;;;;;4470248;32;20218;-76
2020/12/29 09:46:47;;;;;;;6.03;3.50;;;6.60;99.90;;;;;;4469349;32;20133;-76
2020/12/29 09:49:13;;;;;;;5.40;3.50;;;6.70;99.90;;;;;;4470039;32;20411;-77
2020/12/29 09:51:39;;;;;;;5.30;3.60;;;6.70;99.90;;;;;;4468024;32;20154;-76
2020/12/29 09:54:05;;;;;;;5.43;3.53;;;6.70;99.90;;;;;;4468602;32;20138;-76
2020/12/29 09:56:33;;;;;;;6.47;3.30;;;6.80;99.90;;;;;;4469997;32;20142;-76
2020/12/29 09:58:59;;;;;;;7.90;3.80;;;6.80;99.90;;;;;;4468366;32;20494;-75
2020/12/29 10:01:25;;;;;;;7.40;3.73;;;6.80;99.90;;;;;;4468343;32;20529;-76
2020/12/29 10:03:52;;;;;;;7.57;3.50;;;6.80;99.90;;;;;;4469801;32;20143;-76
2020/12/29 10:06:18;;;;;;;5.67;3.80;;;6.70;99.90;;;;;;4468168;32;20138;-75
2020/12/29 10:08:44;;;;;;;6.90;3.87;;;6.80;99.90;;;;;;4468403;32;20199;-75
2020/12/29 10:11:12;;;;;;;4.47;3.20;;;6.70;99.90;;;;;;4468160;32;20166;-75
2020/12/29 10:13:38;;;;;;;6.10;3.70;;;6.70;99.90;;;;;;4469521;32;20138;-76
2020/12/29 10:16:05;;;;;;;6.33;3.20;;;6.70;99.90;;;;;;4468185;32;20220;-75
2020/12/29 10:18:32;;;;;;;6.30;3.60;;;6.60;99.90;;;;;;4467111;32;20207;-77
2020/12/29 10:20:58;;;;;;;5.93;3.40;;;6.60;99.90;;;;;;4468177;32;20429;-76
2020/12/29 10:23:25;;;;;;;6.30;3.23;;;6.60;99.90;;;;;;4468130;32;20137;-76
2020/12/29 10:25:51;;;;;;;5.00;2.73;;;6.50;99.90;;;;;;4469623;32;20166;-78
2020/12/29 10:28:19;;;;;;;4.13;2.90;;;6.60;99.90;;;;;;4467714;32;20241;-77
2020/12/29 10:30:48;;;;;;;4.03;2.80;;;6.50;99.90;;;;;;4469978;32;20185;-77
2020/12/29 10:33:15;;;;;;;3.23;2.47;;;6.40;99.90;;;;;;4467969;32;20147;-78
2020/12/29 10:35:41;;;;;;;3.47;2.33;;;6.30;99.90;;;;;;4467972;32;20461;-78
2020/12/29 10:38:08;;;;;;;3.30;2.30;;;6.20;99.90;;;;;;4469452;32;20169;-77
2020/12/29 10:40:34;;;;;;;3.47;2.23;;;6.10;99.90;;;;;;4460289;32;20174;-77
2020/12/29 10:43:01;;;;;;;3.03;2.20;;;5.90;99.90;;;;;;4457409;32;20238;-78
2020/12/29 10:45:28;;;;;;;2.63;1.90;;;5.80;99.90;;;;;;4459081;32;20178;-78
2020/12/29 10:47:54;;;;;;;3.63;2.40;;;5.70;99.90;;;;;;4457262;32;20547;-77
2020/12/29 10:50:21;;;;;;;3.30;2.07;;;5.50;99.90;;;;;;4457532;32;20196;-76
2020/12/29 10:52:48;;;;;;;3.53;2.20;;;5.50;99.90;;;;;;4456700;32;20468;-77
2020/12/29 10:55:14;;;;;;;3.93;2.30;;;5.40;99.90;;;;;;4457565;32;20178;-77
2020/12/29 10:57:41;;;;;;;3.57;2.33;;;5.30;99.90;;;;;;4456719;32;20361;-77
2020/12/29 11:00:07;;;;;;;5.33;2.40;;;5.30;99.90;;;;;;4457328;32;20206;-77
2020/12/29 11:02:33;;;;;;;3.57;2.40;;;5.20;99.90;;;;;;4458754;32;20198;-77
2020/12/29 11:05:00;;;;;;;3.97;2.20;;;5.20;99.90;;;;;;4458020;32;20134;-77
2020/12/29 11:07:26;;;;;;;3.70;2.27;;;5.20;99.90;;;;;;4457042;32;20206;-78
2020/12/29 11:09:53;;;;;;;3.50;2.57;;;5.00;99.90;;;;;;4458658;32;20151;-78
2020/12/29 11:12:19;;;;;;;2.93;2.33;;;4.90;99.90;;;;;;4458905;32;20137;-78
2020/12/29 11:14:45;;;;;;;4.27;2.87;;;4.90;99.90;;;;;;4457235;32;20143;-78
2020/12/29 11:17:12;;;;;;;5.47;3.03;;;4.80;99.90;;;;;;4458610;32;20416;-77
2020/12/29 11:19:45;;;;;;;5.73;3.40;;;4.80;99.90;;;;;;4456916;32;20184;-79
2020/12/29 11:22:12;;;;;;;5.77;3.50;;;4.80;99.90;;;;;;4456959;32;20155;-79
2020/12/29 11:24:38;;;;;;;5.90;3.63;;;4.70;99.90;;;;;;4458483;32;20403;-78
2020/12/29 11:27:05;;;;;;;5.97;3.70;;;4.70;99.90;;;;;;4456961;32;20277;-77
2020/12/29 11:29:31;;;;;;;8.47;4.50;;;4.70;99.90;;;;;;4458029;32;20170;-77
2020/12/29 11:31:58;;;;;;;6.33;4.50;;;4.70;99.90;;;;;;4457570;32;20370;-79
2020/12/29 11:34:24;;;;;;;8.20;5.27;;;4.70;99.90;;;;;;4457410;32;20174;-78
2020/12/29 11:36:51;;;;;;;9.00;5.50;;;4.70;99.90;;;;;;4456571;32;20139;-78
2020/12/29 11:39:17;;;;;;;9.37;5.83;;;4.70;99.90;;;;;;4456550;32;20469;-77
2020/12/29 11:41:50;;;;;;;9.77;6.27;;;4.70;99.90;;;;;;4458161;32;20139;-78
2020/12/29 11:44:16;;;;;;;11.33;6.80;;;4.70;99.90;;;;;;4456936;32;20139;-77
2020/12/29 11:46:42;;;;;;;11.53;7.00;;;4.70;99.90;;;;;;4456453;32;20479;-78
2020/12/29 11:49:09;;;;;;;14.50;7.80;;;4.80;99.90;;;;;;4456335;32;20152;-78
2020/12/29 11:51:35;;;;;;;11.47;7.57;;;4.80;99.90;;;;;;4455558;32;20135;-77
2020/12/29 11:54:02;;;;;;;13.03;8.10;;;4.80;99.90;;;;;;4456208;32;20391;-78
2020/12/29 11:56:28;;;;;;;14.13;8.37;;;4.90;99.90;;;;;;4457705;32;20140;-77
2020/12/29 11:58:56;;;;;;;16.20;8.87;;;4.90;99.90;;;;;;4456266;32;20423;-78
2020/12/29 12:01:22;;;;;;;13.53;8.47;;;4.90;99.90;;;;;;4456035;32;20172;-78
2020/12/29 12:03:49;;;;;;;16.50;9.43;;;4.90;99.90;;;;;;4456851;32;20190;-78
2020/12/29 12:06:15;;;;;;;16.77;9.70;;;4.90;99.90;;;;;;4456114;32;20205;-78
2020/12/29 12:08:41;;;;;;;16.70;10.13;;;4.90;99.90;;;;;;4455904;32;20142;-78
2020/12/29 12:11:08;;;;;;;19.27;10.63;;;5.00;99.90;;;;;;4455964;32;20202;-77
2020/12/29 12:13:34;;;;;;;17.53;10.33;;;5.00;99.90;;;;;;4455904;32;20162;-78
2020/12/29 12:16:01;;;;;;;17.30;10.43;;;5.00;99.90;;;;;;4456009;32;20156;-78
2020/12/29 12:18:39;;;;;;;17.53;11.20;;;5.00;99.90;;;;;;4457267;32;20155;-77
2020/12/29 12:21:05;;;;;;;16.83;10.40;;;5.10;99.90;;;;;;4455624;32;20565;-77
2020/12/29 12:23:32;;;;;;;17.40;10.53;;;5.10;99.90;;;;;;4455780;32;20139;-77
2020/12/29 12:25:58;;;;;;;20.67;10.93;;;5.10;99.90;;;;;;4455851;32;20135;-77
2020/12/29 12:28:25;;;;;;;17.80;10.03;;;5.20;99.90;;;;;;4456930;32;20242;-77
2020/12/29 12:30:52;;;;;;;16.00;9.00;;;5.20;99.90;;;;;;4457498;32;20150;-76
2020/12/29 12:33:18;;;;;;;17.93;9.27;;;5.20;99.90;;;;;;4455531;32;20143;-78
2020/12/29 12:35:44;;;;;;;16.53;8.87;;;5.20;99.90;;;;;;4455421;32;20216;-76
2020/12/29 12:38:11;;;;;;;17.27;9.00;;;5.20;99.90;;;;;;4455461;32;20466;-78
2020/12/29 12:40:37;;;;;;;14.13;8.97;;;5.20;99.90;;;;;;4455016;32;20157;-78
2020/12/29 12:43:04;;;;;;;15.93;9.03;;;5.20;99.90;;;;;;4455440;32;20453;-78
2020/12/29 12:45:30;;;;;;;16.60;9.10;;;5.10;99.90;;;;;;4455671;32;20142;-78
2020/12/29 12:47:57;;;;;;;15.87;9.10;;;5.10;99.90;;;;;;4454818;32;20146;-77
2020/12/29 12:50:23;;;;;;;16.10;8.83;;;5.10;99.90;;;;;;4455214;32;20238;-78
2020/12/29 12:52:49;;;;;;;15.13;8.10;;;5.10;99.90;;;;;;4455160;32;20138;-78
2020/12/29 12:55:16;;;;;;;14.23;7.90;;;5.10;99.90;;;;;;4456065;32;20177;-78
2020/12/29 12:57:42;;;;;;;13.20;7.67;;;5.20;99.90;;;;;;4455327;32;20138;-77